Welcome to Des Moines Iowa Weather. I am an independent private personal weather station on the Northwest Side of Des Moines, Iowa. Just East of Windsor Heights and just West of Glendale . This site is also mobile friendly.

There are no active watches, warnings or advisories


Visit our other weather sites:

Historical Data

Weather Station Setup



Weather Underground History page Text

Daily Summary for March 1, 2017 Units:  English    Metric   Both
« Previous Day
Next Day »
Daily Weekly Monthly Yearly Custom
  High: Low: Average:
Temperature: 40.5 °F 28.9 °F 35.8 °F
Dew Point: 36.2 °F 22.5 °F 30.6 °F
Humidity: 94 % 60 % 82 %
Wind Speed: 16.0 mph 0.0 mph 5.6 mph
Wind Gust: 23.0 mph - -
Wind:- - NW
Pressure: 30.28 in 29.64 in -
Precipitation: 0.00 in    
Historical Graphs
 
 
Tabular Data for March 1, 2017
Time Temperature Dew Point Pressure Wind Wind Speed Wind Gust Humidity Rainfall Rate (Hourly)
00:01 38.3 °F 36.0 °F 29.66 in NNW 9.0 mph 12.0 mph 92 % 0.00 in
00:15 38.3 °F 36.2 °F 29.67 in NW 4.0 mph 12.0 mph 92 % 0.00 in
00:20 38.3 °F 36.2 °F 29.67 in NW 4.0 mph 12.0 mph 92 % 0.00 in
00:28 37.7 °F 36.0 °F 29.64 in NW 6.0 mph 16.0 mph 93 % 0.00 in
00:34 38.3 °F 36.2 °F 29.67 in NW 4.0 mph 12.0 mph 92 % 0.00 in
00:35 37.6 °F 35.8 °F 29.66 in NW 6.0 mph 6.0 mph 93 % 0.00 in
00:40 37.6 °F 35.8 °F 29.66 in NW 6.0 mph 12.0 mph 93 % 0.00 in
00:45 37.6 °F 35.8 °F 29.66 in NW 6.0 mph 12.0 mph 93 % 0.00 in
00:50 37.6 °F 35.8 °F 29.66 in NW 6.0 mph 12.0 mph 93 % 0.00 in
00:51 37.4 °F 36.0 °F 29.64 in NNW 4.0 mph 15.0 mph 94 % 0.00 in
00:55 37.6 °F 35.8 °F 29.65 in NW 6.0 mph 12.0 mph 93 % 0.00 in
01:00 37.6 °F 35.8 °F 29.65 in NW 6.0 mph 12.0 mph 93 % 0.00 in
01:05 37.6 °F 35.8 °F 29.65 in NW 6.0 mph 12.0 mph 93 % 0.00 in
01:06 37.2 °F 36.0 °F 29.65 in WNW 8.0 mph 18.0 mph 94 % 0.00 in
01:10 37.4 °F 35.6 °F 29.66 in NW 6.0 mph 17.0 mph 93 % 0.00 in
01:15 37.4 °F 35.6 °F 29.66 in NW 6.0 mph 17.0 mph 93 % 0.00 in
01:20 37.4 °F 35.6 °F 29.66 in NW 6.0 mph 17.0 mph 93 % 0.00 in
01:21 37.0 °F 36.0 °F 29.66 in NW 11.0 mph 15.0 mph 94 % 0.00 in
01:25 37.2 °F 35.4 °F 29.67 in NW 5.0 mph 12.0 mph 93 % 0.00 in
01:30 37.2 °F 35.4 °F 29.67 in NW 5.0 mph 12.0 mph 93 % 0.00 in
01:35 37.2 °F 35.4 °F 29.67 in NW 5.0 mph 12.0 mph 93 % 0.00 in
01:36 36.8 °F 35.0 °F 29.66 in North 5.0 mph 15.0 mph 94 % 0.00 in
01:40 37.0 °F 35.2 °F 29.68 in NW 5.0 mph 12.0 mph 93 % 0.00 in
01:45 37.0 °F 35.2 °F 29.68 in NW 5.0 mph 12.0 mph 93 % 0.00 in
01:50 37.0 °F 35.2 °F 29.68 in NW 5.0 mph 12.0 mph 93 % 0.00 in
01:51 36.7 °F 35.0 °F 29.68 in WNW 3.0 mph 15.0 mph 94 % 0.00 in
01:55 36.8 °F 35.0 °F 29.69 in NW 5.0 mph 13.0 mph 93 % 0.00 in
02:00 36.8 °F 35.0 °F 29.69 in NW 5.0 mph 13.0 mph 93 % 0.00 in
02:05 36.8 °F 35.0 °F 29.69 in NW 5.0 mph 13.0 mph 93 % 0.00 in
02:07 36.6 °F 35.0 °F 29.67 in NNW 2.0 mph 9.0 mph 94 % 0.00 in
02:10 36.7 °F 34.9 °F 29.69 in NW 4.0 mph 11.0 mph 93 % 0.00 in
02:15 36.7 °F 34.9 °F 29.69 in NW 4.0 mph 11.0 mph 93 % 0.00 in
02:20 36.7 °F 34.9 °F 29.69 in NW 4.0 mph 11.0 mph 93 % 0.00 in
02:22 36.5 °F 35.0 °F 29.69 in NW 3.0 mph 12.0 mph 94 % 0.00 in
02:25 36.6 °F 34.8 °F 29.69 in NW 4.0 mph 10.0 mph 93 % 0.00 in
02:30 36.6 °F 34.8 °F 29.69 in NW 4.0 mph 10.0 mph 93 % 0.00 in
02:35 36.6 °F 34.8 °F 29.69 in NW 4.0 mph 10.0 mph 93 % 0.00 in
02:37 36.4 °F 35.0 °F 29.69 in WNW 5.0 mph 12.0 mph 94 % 0.00 in
02:40 36.5 °F 34.7 °F 29.70 in WNW 3.0 mph 11.0 mph 93 % 0.00 in
02:45 36.5 °F 34.7 °F 29.70 in WNW 3.0 mph 11.0 mph 93 % 0.00 in
02:50 36.5 °F 34.7 °F 29.70 in WNW 3.0 mph 11.0 mph 93 % 0.00 in
02:52 36.4 °F 35.0 °F 29.70 in NW 8.0 mph 12.0 mph 94 % 0.00 in
02:55 36.4 °F 34.6 °F 29.71 in NW 3.0 mph 11.0 mph 93 % 0.00 in
03:00 36.4 °F 34.6 °F 29.71 in NW 3.0 mph 11.0 mph 93 % 0.00 in
03:05 36.4 °F 34.6 °F 29.71 in NW 3.0 mph 11.0 mph 93 % 0.00 in
03:07 36.2 °F 35.0 °F 29.70 in WNW 1.0 mph 14.0 mph 94 % 0.00 in
03:10 36.3 °F 34.5 °F 29.72 in NW 5.0 mph 13.0 mph 93 % 0.00 in
03:15 36.3 °F 34.5 °F 29.72 in NW 5.0 mph 13.0 mph 93 % 0.00 in
03:20 36.3 °F 34.5 °F 29.72 in NW 5.0 mph 13.0 mph 93 % 0.00 in
03:22 36.1 °F 35.0 °F 29.71 in NW 7.0 mph 16.0 mph 94 % 0.00 in
03:25 36.2 °F 34.4 °F 29.72 in NW 4.0 mph 11.0 mph 93 % 0.00 in
03:30 36.2 °F 34.4 °F 29.72 in NW 4.0 mph 11.0 mph 93 % 0.00 in
03:35 36.2 °F 34.4 °F 29.72 in NW 4.0 mph 11.0 mph 93 % 0.00 in
03:37 35.9 °F 34.0 °F 29.71 in NNW 3.0 mph 13.0 mph 94 % 0.00 in
03:40 36.1 °F 34.3 °F 29.73 in NW 5.0 mph 15.0 mph 93 % 0.00 in
03:45 36.1 °F 34.3 °F 29.73 in NW 5.0 mph 15.0 mph 93 % 0.00 in
03:50 36.1 °F 34.3 °F 29.73 in NW 5.0 mph 15.0 mph 93 % 0.00 in
03:52 35.6 °F 34.0 °F 29.71 in NNW 9.0 mph 14.0 mph 94 % 0.00 in
03:55 35.9 °F 34.1 °F 29.73 in NW 4.0 mph 12.0 mph 93 % 0.00 in
04:00 35.9 °F 34.1 °F 29.73 in NW 4.0 mph 12.0 mph 93 % 0.00 in
04:05 35.9 °F 34.1 °F 29.73 in NW 4.0 mph 12.0 mph 93 % 0.00 in
04:07 35.4 °F 34.0 °F 29.72 in WNW 4.0 mph 12.0 mph 94 % 0.00 in
04:10 35.6 °F 33.8 °F 29.72 in NW 4.0 mph 13.0 mph 93 % 0.00 in
04:15 35.6 °F 33.8 °F 29.72 in NW 4.0 mph 13.0 mph 93 % 0.00 in
04:20 35.6 °F 33.8 °F 29.72 in NW 4.0 mph 13.0 mph 93 % 0.00 in
04:22 35.2 °F 34.0 °F 29.73 in NW 8.0 mph 18.0 mph 94 % 0.00 in
04:25 35.4 °F 33.6 °F 29.73 in NW 4.0 mph 13.0 mph 93 % 0.00 in
04:30 35.4 °F 33.6 °F 29.73 in NW 4.0 mph 13.0 mph 93 % 0.00 in
04:35 35.4 °F 33.6 °F 29.73 in NW 4.0 mph 13.0 mph 93 % 0.00 in
04:37 35.1 °F 34.0 °F 29.74 in North 10.0 mph 20.0 mph 94 % 0.00 in
04:40 35.2 °F 33.4 °F 29.74 in NW 6.0 mph 16.0 mph 93 % 0.00 in
04:45 35.2 °F 33.4 °F 29.74 in NW 6.0 mph 16.0 mph 93 % 0.00 in
04:50 35.2 °F 33.4 °F 29.74 in NW 6.0 mph 16.0 mph 93 % 0.00 in
04:52 35.0 °F 34.0 °F 29.74 in NNW 11.0 mph 14.0 mph 94 % 0.00 in
04:55 35.0 °F 33.2 °F 29.74 in WNW 6.0 mph 15.0 mph 93 % 0.00 in
05:00 35.0 °F 33.2 °F 29.74 in WNW 6.0 mph 15.0 mph 93 % 0.00 in
05:05 35.0 °F 33.2 °F 29.74 in WNW 6.0 mph 15.0 mph 93 % 0.00 in
05:07 35.0 °F 34.0 °F 29.74 in WNW 5.0 mph 16.0 mph 94 % 0.00 in
05:10 35.0 °F 33.2 °F 29.75 in NW 5.0 mph 17.0 mph 93 % 0.00 in
05:15 35.0 °F 33.2 °F 29.75 in NW 5.0 mph 17.0 mph 93 % 0.00 in
05:20 35.0 °F 33.2 °F 29.75 in NW 5.0 mph 17.0 mph 93 % 0.00 in
05:22 34.9 °F 33.0 °F 29.75 in NNW 13.0 mph 22.0 mph 93 % 0.00 in
05:25 35.0 °F 32.9 °F 29.75 in NW 6.0 mph 16.0 mph 92 % 0.00 in
05:30 35.0 °F 32.9 °F 29.75 in NW 6.0 mph 16.0 mph 92 % 0.00 in
05:35 35.0 °F 32.9 °F 29.75 in NW 6.0 mph 16.0 mph 92 % 0.00 in
05:37 35.0 °F 33.0 °F 29.75 in NW 7.0 mph 18.0 mph 93 % 0.00 in
05:40 35.0 °F 32.9 °F 29.75 in NW 7.0 mph 15.0 mph 92 % 0.00 in
05:45 35.0 °F 32.9 °F 29.75 in NW 7.0 mph 15.0 mph 92 % 0.00 in
05:50 35.0 °F 32.9 °F 29.75 in NW 7.0 mph 15.0 mph 92 % 0.00 in
05:52 34.9 °F 33.0 °F 29.76 in North 8.0 mph 18.0 mph 93 % 0.00 in
05:55 35.0 °F 32.9 °F 29.76 in WNW 6.0 mph 16.0 mph 92 % 0.00 in
06:00 35.0 °F 32.9 °F 29.76 in WNW 6.0 mph 16.0 mph 92 % 0.00 in
06:05 35.0 °F 32.9 °F 29.76 in WNW 6.0 mph 16.0 mph 92 % 0.00 in
06:07 34.9 °F 33.0 °F 29.76 in NW 6.0 mph 17.0 mph 94 % 0.00 in
06:10 34.9 °F 33.1 °F 29.77 in NW 5.0 mph 15.0 mph 93 % 0.00 in
06:15 34.9 °F 33.1 °F 29.77 in NW 5.0 mph 15.0 mph 93 % 0.00 in
06:20 34.9 °F 33.1 °F 29.77 in NW 5.0 mph 15.0 mph 93 % 0.00 in
06:22 34.9 °F 33.0 °F 29.77 in WNW 11.0 mph 13.0 mph 93 % 0.00 in
06:25 34.9 °F 32.8 °F 29.77 in NW 6.0 mph 16.0 mph 92 % 0.00 in
06:30 34.9 °F 32.8 °F 29.77 in NW 6.0 mph 16.0 mph 92 % 0.00 in
06:35 34.9 °F 32.8 °F 29.77 in NW 6.0 mph 16.0 mph 92 % 0.00 in
06:37 35.0 °F 33.0 °F 29.78 in NNW 5.0 mph 15.0 mph 93 % 0.00 in
06:40 34.9 °F 32.8 °F 29.78 in NW 6.0 mph 16.0 mph 92 % 0.00 in
06:45 34.9 °F 32.8 °F 29.78 in NW 6.0 mph 16.0 mph 92 % 0.00 in
06:50 34.9 °F 32.8 °F 29.78 in NW 6.0 mph 16.0 mph 92 % 0.00 in
06:52 34.9 °F 33.0 °F 29.79 in West 7.0 mph 19.0 mph 93 % 0.00 in
06:55 34.9 °F 32.8 °F 29.79 in NW 6.0 mph 15.0 mph 92 % 0.00 in
07:00 34.9 °F 32.8 °F 29.79 in NW 6.0 mph 15.0 mph 92 % 0.00 in
07:05 34.9 °F 32.8 °F 29.79 in NW 6.0 mph 15.0 mph 92 % 0.00 in
07:07 34.9 °F 33.0 °F 29.80 in NNW 10.0 mph 21.0 mph 93 % 0.00 in
07:10 34.9 °F 32.8 °F 29.80 in NW 6.0 mph 19.0 mph 92 % 0.00 in
07:15 34.9 °F 32.8 °F 29.80 in NW 6.0 mph 19.0 mph 92 % 0.00 in
07:20 34.9 °F 32.8 °F 29.80 in NW 6.0 mph 19.0 mph 92 % 0.00 in
07:22 35.0 °F 33.0 °F 29.81 in WNW 4.0 mph 16.0 mph 93 % 0.00 in
07:25 34.9 °F 32.8 °F 29.81 in NW 6.0 mph 16.0 mph 92 % 0.00 in
07:30 34.9 °F 32.8 °F 29.81 in NW 6.0 mph 16.0 mph 92 % 0.00 in
07:35 34.9 °F 32.8 °F 29.81 in NW 6.0 mph 16.0 mph 92 % 0.00 in
07:37 35.0 °F 33.0 °F 29.82 in WNW 8.0 mph 16.0 mph 93 % 0.00 in
07:40 35.0 °F 32.9 °F 29.82 in NW 6.0 mph 14.0 mph 92 % 0.00 in
07:45 35.0 °F 32.9 °F 29.82 in NW 6.0 mph 14.0 mph 92 % 0.00 in
07:50 35.0 °F 32.9 °F 29.82 in NW 6.0 mph 14.0 mph 92 % 0.00 in
07:52 35.0 °F 33.0 °F 29.83 in WNW 1.0 mph 23.0 mph 92 % 0.00 in
07:55 34.9 °F 32.5 °F 29.83 in NW 5.0 mph 13.0 mph 91 % 0.00 in
08:00 34.9 °F 32.5 °F 29.83 in NW 5.0 mph 13.0 mph 91 % 0.00 in
08:05 34.9 °F 32.5 °F 29.83 in NW 5.0 mph 13.0 mph 91 % 0.00 in
08:07 35.1 °F 33.0 °F 29.84 in NW 5.0 mph 16.0 mph 92 % 0.00 in
08:10 35.0 °F 32.7 °F 29.83 in NW 6.0 mph 16.0 mph 91 % 0.00 in
08:15 35.0 °F 32.7 °F 29.83 in NW 6.0 mph 16.0 mph 91 % 0.00 in
08:20 35.0 °F 32.7 °F 29.83 in NW 6.0 mph 16.0 mph 91 % 0.00 in
08:23 35.2 °F 33.0 °F 29.85 in NNW 5.0 mph 12.0 mph 91 % 0.00 in
08:25 35.1 °F 32.5 °F 29.84 in WNW 6.0 mph 16.0 mph 90 % 0.00 in
08:30 35.1 °F 32.5 °F 29.84 in WNW 6.0 mph 16.0 mph 90 % 0.00 in
08:35 35.1 °F 32.5 °F 29.84 in WNW 6.0 mph 16.0 mph 90 % 0.00 in
08:38 35.2 °F 33.0 °F 29.86 in SW 3.0 mph 15.0 mph 91 % 0.00 in
08:40 35.2 °F 32.6 °F 29.85 in NW 5.0 mph 11.0 mph 90 % 0.00 in
08:45 35.2 °F 32.6 °F 29.85 in NW 5.0 mph 11.0 mph 90 % 0.00 in
08:50 35.2 °F 32.6 °F 29.85 in NW 5.0 mph 11.0 mph 90 % 0.00 in
08:53 34.7 °F 32.0 °F 29.87 in WNW 7.0 mph 17.0 mph 91 % 0.00 in
08:55 35.2 °F 32.6 °F 29.86 in NW 6.0 mph 17.0 mph 90 % 0.00 in
09:00 35.2 °F 32.6 °F 29.86 in NW 6.0 mph 17.0 mph 90 % 0.00 in
09:05 35.2 °F 32.6 °F 29.86 in NW 6.0 mph 17.0 mph 90 % 0.00 in
09:08 33.8 °F 32.0 °F 29.88 in NW 1.0 mph 16.0 mph 92 % 0.00 in
09:10 34.6 °F 32.0 °F 29.88 in NW 6.0 mph 15.0 mph 90 % 0.00 in
09:15 34.6 °F 32.0 °F 29.88 in NW 6.0 mph 15.0 mph 90 % 0.00 in
09:20 34.6 °F 32.0 °F 29.88 in NW 6.0 mph 15.0 mph 90 % 0.00 in
09:23 33.9 °F 32.0 °F 29.89 in NW 1.0 mph 17.0 mph 93 % 0.00 in
09:25 33.9 °F 31.5 °F 29.89 in NW 5.0 mph 14.0 mph 91 % 0.00 in
09:30 33.9 °F 31.5 °F 29.89 in NW 5.0 mph 14.0 mph 91 % 0.00 in
09:35 33.9 °F 31.5 °F 29.89 in NW 5.0 mph 14.0 mph 91 % 0.00 in
09:38 34.0 °F 32.0 °F 29.91 in WNW 2.0 mph 18.0 mph 93 % 0.00 in
09:40 33.9 °F 31.8 °F 29.89 in NW 7.0 mph 16.0 mph 92 % 0.00 in
09:45 33.9 °F 31.8 °F 29.89 in NW 7.0 mph 16.0 mph 92 % 0.00 in
09:50 33.9 °F 31.8 °F 29.89 in NW 7.0 mph 16.0 mph 92 % 0.00 in
09:53 34.1 °F 32.0 °F 29.91 in NNW 5.0 mph 17.0 mph 93 % 0.00 in
09:55 34.0 °F 31.9 °F 29.91 in NW 5.0 mph 15.0 mph 92 % 0.00 in
10:00 34.0 °F 31.9 °F 29.91 in NW 5.0 mph 15.0 mph 92 % 0.00 in
10:05 34.0 °F 31.9 °F 29.91 in NW 5.0 mph 15.0 mph 92 % 0.00 in
10:08 34.3 °F 32.0 °F 29.93 in NW 12.0 mph 14.0 mph 92 % 0.00 in
10:10 34.1 °F 32.0 °F 29.91 in NW 5.0 mph 14.0 mph 92 % 0.00 in
10:15 34.1 °F 32.0 °F 29.91 in NW 5.0 mph 14.0 mph 92 % 0.00 in
10:20 34.1 °F 32.0 °F 29.91 in NW 5.0 mph 14.0 mph 92 % 0.00 in
10:23 34.9 °F 33.0 °F 29.94 in NNW 14.0 mph 19.0 mph 91 % 0.00 in
10:25 34.3 °F 32.0 °F 29.93 in NW 6.0 mph 14.0 mph 91 % 0.00 in
10:30 34.3 °F 32.0 °F 29.93 in NW 6.0 mph 14.0 mph 91 % 0.00 in
10:35 34.3 °F 32.0 °F 29.93 in NW 6.0 mph 14.0 mph 91 % 0.00 in
10:38 35.4 °F 33.0 °F 29.94 in NNW 4.0 mph 23.0 mph 89 % 0.00 in
10:40 34.8 °F 31.9 °F 29.94 in NW 7.0 mph 14.0 mph 89 % 0.00 in
10:45 34.8 °F 31.9 °F 29.94 in NW 7.0 mph 14.0 mph 89 % 0.00 in
10:50 34.8 °F 31.9 °F 29.94 in NW 7.0 mph 14.0 mph 89 % 0.00 in
10:53 36.7 °F 33.0 °F 29.95 in NW 11.0 mph 19.0 mph 86 % 0.00 in
10:55 35.6 °F 32.1 °F 29.94 in NW 7.0 mph 22.0 mph 87 % 0.00 in
11:00 35.6 °F 32.1 °F 29.94 in NW 7.0 mph 22.0 mph 87 % 0.00 in
11:05 35.6 °F 32.1 °F 29.94 in NW 7.0 mph 22.0 mph 87 % 0.00 in
11:08 36.3 °F 32.0 °F 29.96 in North 16.0 mph 20.0 mph 85 % 0.00 in
11:10 36.6 °F 32.2 °F 29.95 in NW 6.0 mph 16.0 mph 84 % 0.00 in
11:15 36.6 °F 32.2 °F 29.95 in NW 6.0 mph 16.0 mph 84 % 0.00 in
11:20 36.6 °F 32.2 °F 29.95 in NW 6.0 mph 16.0 mph 84 % 0.00 in
11:23 36.0 °F 32.0 °F 29.97 in NW 4.0 mph 20.0 mph 84 % 0.00 in
11:25 36.3 °F 31.6 °F 29.95 in NW 8.0 mph 19.0 mph 83 % 0.00 in
11:30 36.3 °F 31.6 °F 29.95 in NW 8.0 mph 19.0 mph 83 % 0.00 in
11:35 36.3 °F 31.6 °F 29.95 in NW 8.0 mph 19.0 mph 83 % 0.00 in
11:38 36.3 °F 32.0 °F 29.98 in NW 4.0 mph 15.0 mph 83 % 0.00 in
11:40 36.0 °F 31.4 °F 29.97 in NW 7.0 mph 18.0 mph 83 % 0.00 in
11:45 36.0 °F 31.4 °F 29.97 in NW 7.0 mph 18.0 mph 83 % 0.00 in
11:50 36.0 °F 31.4 °F 29.97 in NW 7.0 mph 18.0 mph 83 % 0.00 in
11:53 36.3 °F 31.0 °F 30.00 in NW 8.0 mph 18.0 mph 82 % 0.00 in
11:55 36.2 °F 30.9 °F 29.98 in NW 7.0 mph 16.0 mph 81 % 0.00 in
12:00 36.2 °F 30.9 °F 29.98 in NW 7.0 mph 16.0 mph 81 % 0.00 in
12:05 36.2 °F 30.9 °F 29.98 in NW 7.0 mph 16.0 mph 81 % 0.00 in
12:08 37.1 °F 31.0 °F 30.00 in NNW 9.0 mph 19.0 mph 79 % 0.00 in
12:10 36.3 °F 30.7 °F 29.99 in WNW 5.0 mph 14.0 mph 80 % 0.00 in
12:15 36.3 °F 30.7 °F 29.99 in WNW 5.0 mph 14.0 mph 80 % 0.00 in
12:20 36.3 °F 30.7 °F 29.99 in WNW 5.0 mph 14.0 mph 80 % 0.00 in
12:23 37.7 °F 32.0 °F 30.00 in NNW 10.0 mph 15.0 mph 79 % 0.00 in
12:25 37.1 °F 30.2 °F 29.99 in NW 6.0 mph 17.0 mph 76 % 0.00 in
12:30 37.1 °F 30.2 °F 29.99 in NW 6.0 mph 17.0 mph 76 % 0.00 in
12:35 37.1 °F 30.2 °F 29.99 in NW 6.0 mph 17.0 mph 76 % 0.00 in
12:38 38.5 °F 31.0 °F 30.01 in WNW 5.0 mph 21.0 mph 75 % 0.00 in
12:40 37.6 °F 30.4 °F 29.99 in NW 7.0 mph 19.0 mph 75 % 0.00 in
12:45 37.6 °F 30.4 °F 29.99 in NW 7.0 mph 19.0 mph 75 % 0.00 in
12:50 37.6 °F 30.4 °F 29.99 in NW 7.0 mph 19.0 mph 75 % 0.00 in
12:53 38.5 °F 31.0 °F 30.01 in WNW 4.0 mph 19.0 mph 73 % 0.00 in
12:55 38.2 °F 29.6 °F 30.00 in NW 7.0 mph 17.0 mph 71 % 0.00 in
13:00 38.2 °F 29.6 °F 30.00 in NW 7.0 mph 17.0 mph 71 % 0.00 in
13:05 38.2 °F 29.6 °F 30.00 in NW 7.0 mph 17.0 mph 71 % 0.00 in
13:08 39.0 °F 30.0 °F 30.01 in West 3.0 mph 20.0 mph 69 % 0.00 in
13:10 38.6 °F 30.7 °F 30.00 in NW 6.0 mph 16.0 mph 73 % 0.00 in
13:15 38.6 °F 30.7 °F 30.00 in NW 6.0 mph 16.0 mph 73 % 0.00 in
13:20 38.6 °F 30.7 °F 30.00 in NW 6.0 mph 16.0 mph 73 % 0.00 in
13:23 39.0 °F 31.0 °F 30.02 in NNW 4.0 mph 16.0 mph 72 % 0.00 in
13:25 39.1 °F 29.8 °F 30.00 in NW 6.0 mph 16.0 mph 69 % 0.00 in
13:30 39.1 °F 29.8 °F 30.00 in NW 6.0 mph 16.0 mph 69 % 0.00 in
13:35 39.1 °F 29.8 °F 30.00 in NW 6.0 mph 16.0 mph 69 % 0.00 in
13:39 39.5 °F 29.0 °F 30.02 in NW 11.0 mph 17.0 mph 67 % 0.00 in
13:40 39.3 °F 28.9 °F 30.00 in WNW 6.0 mph 12.0 mph 66 % 0.00 in
13:45 39.3 °F 28.9 °F 30.00 in WNW 6.0 mph 12.0 mph 66 % 0.00 in
13:50 39.3 °F 28.9 °F 30.00 in WNW 6.0 mph 12.0 mph 66 % 0.00 in
13:54 38.9 °F 29.0 °F 30.03 in NNW 9.0 mph 20.0 mph 67 % 0.00 in
13:55 39.6 °F 29.2 °F 30.01 in NW 7.0 mph 18.0 mph 66 % 0.00 in
14:00 39.6 °F 29.2 °F 30.01 in NW 7.0 mph 18.0 mph 66 % 0.00 in
14:05 39.6 °F 29.2 °F 30.01 in NW 7.0 mph 18.0 mph 66 % 0.00 in
14:09 39.6 °F 29.0 °F 30.04 in NW 13.0 mph 19.0 mph 67 % 0.00 in
14:10 39.0 °F 28.6 °F 30.02 in NW 8.0 mph 20.0 mph 66 % 0.00 in
14:15 39.0 °F 28.6 °F 30.02 in NW 8.0 mph 20.0 mph 66 % 0.00 in
14:20 39.0 °F 28.6 °F 30.02 in NW 8.0 mph 20.0 mph 66 % 0.00 in
14:24 38.9 °F 29.0 °F 30.05 in WNW 3.0 mph 19.0 mph 68 % 0.00 in
14:25 39.5 °F 28.7 °F 30.02 in NW 7.0 mph 17.0 mph 65 % 0.00 in
14:30 39.5 °F 28.7 °F 30.02 in NW 7.0 mph 17.0 mph 65 % 0.00 in
14:35 39.5 °F 28.7 °F 30.02 in NW 7.0 mph 17.0 mph 65 % 0.00 in
14:39 38.7 °F 30.0 °F 30.06 in NW 5.0 mph 15.0 mph 71 % 0.00 in
14:40 39.0 °F 29.4 °F 30.03 in NW 7.0 mph 16.0 mph 68 % 0.00 in
14:45 39.0 °F 29.4 °F 30.03 in NW 7.0 mph 16.0 mph 68 % 0.00 in
14:50 39.0 °F 29.4 °F 30.03 in NW 7.0 mph 16.0 mph 68 % 0.00 in
14:54 40.5 °F 30.0 °F 30.06 in NW 8.0 mph 19.0 mph 66 % 0.00 in
14:55 38.9 °F 28.9 °F 30.04 in NW 6.0 mph 15.0 mph 67 % 0.00 in
15:00 38.9 °F 28.9 °F 30.04 in NW 6.0 mph 15.0 mph 67 % 0.00 in
15:05 38.9 °F 28.9 °F 30.04 in NW 6.0 mph 15.0 mph 67 % 0.00 in
15:09 39.5 °F 30.0 °F 30.07 in West 8.0 mph 20.0 mph 68 % 0.00 in
15:10 40.4 °F 30.0 °F 30.04 in WNW 5.0 mph 20.0 mph 66 % 0.00 in
15:15 40.4 °F 30.0 °F 30.04 in WNW 5.0 mph 20.0 mph 66 % 0.00 in
15:20 40.4 °F 30.0 °F 30.04 in WNW 5.0 mph 20.0 mph 66 % 0.00 in
15:24 40.4 °F 28.0 °F 30.08 in WNW 3.0 mph 17.0 mph 62 % 0.00 in
15:25 39.7 °F 28.1 °F 30.05 in WNW 5.0 mph 20.0 mph 63 % 0.00 in
15:30 39.7 °F 28.1 °F 30.05 in WNW 5.0 mph 20.0 mph 63 % 0.00 in
15:35 39.7 °F 28.1 °F 30.05 in WNW 5.0 mph 20.0 mph 63 % 0.00 in
15:39 40.1 °F 27.0 °F 30.09 in NNW 6.0 mph 18.0 mph 61 % 0.00 in
15:40 40.4 °F 27.6 °F 30.07 in WNW 6.0 mph 14.0 mph 60 % 0.00 in
15:45 40.4 °F 27.6 °F 30.07 in WNW 6.0 mph 14.0 mph 60 % 0.00 in
15:50 40.4 °F 27.6 °F 30.07 in WNW 6.0 mph 14.0 mph 60 % 0.00 in
15:54 39.7 °F 27.0 °F 30.10 in NW 10.0 mph 17.0 mph 62 % 0.00 in
15:55 40.3 °F 27.9 °F 30.07 in NW 6.0 mph 15.0 mph 61 % 0.00 in
16:00 40.3 °F 27.9 °F 30.07 in NW 6.0 mph 15.0 mph 61 % 0.00 in
16:05 40.3 °F 27.9 °F 30.07 in NW 6.0 mph 15.0 mph 61 % 0.00 in
16:09 39.4 °F 28.0 °F 30.11 in WNW 8.0 mph 14.0 mph 63 % 0.00 in
16:10 39.9 °F 28.0 °F 30.08 in WNW 7.0 mph 16.0 mph 62 % 0.00 in
16:15 39.9 °F 28.0 °F 30.08 in WNW 7.0 mph 16.0 mph 62 % 0.00 in
16:20 39.9 °F 28.0 °F 30.08 in WNW 7.0 mph 16.0 mph 62 % 0.00 in
16:24 38.7 °F 27.0 °F 30.12 in WNW 8.0 mph 21.0 mph 64 % 0.00 in
16:25 39.4 °F 27.9 °F 30.09 in WNW 5.0 mph 21.0 mph 63 % 0.00 in
16:30 39.4 °F 27.9 °F 30.09 in WNW 5.0 mph 21.0 mph 63 % 0.00 in
16:35 39.4 °F 27.9 °F 30.09 in WNW 5.0 mph 21.0 mph 63 % 0.00 in
16:39 38.2 °F 28.0 °F 30.12 in NNW 9.0 mph 20.0 mph 67 % 0.00 in
16:40 38.7 °F 27.2 °F 30.09 in NW 7.0 mph 16.0 mph 63 % 0.00 in
16:45 38.7 °F 27.2 °F 30.09 in NW 7.0 mph 16.0 mph 63 % 0.00 in
16:50 38.7 °F 27.2 °F 30.09 in NW 7.0 mph 16.0 mph 63 % 0.00 in
16:54 38.0 °F 29.0 °F 30.13 in NNW 9.0 mph 16.0 mph 69 % 0.00 in
16:55 38.1 °F 27.8 °F 30.10 in WNW 5.0 mph 14.0 mph 66 % 0.00 in
17:00 38.1 °F 27.8 °F 30.10 in WNW 5.0 mph 14.0 mph 66 % 0.00 in
17:05 38.1 °F 27.8 °F 30.10 in WNW 5.0 mph 14.0 mph 66 % 0.00 in
17:09 37.7 °F 29.0 °F 30.14 in NW 8.0 mph 15.0 mph 71 % 0.00 in
17:10 38.0 °F 28.7 °F 30.10 in NW 5.0 mph 13.0 mph 69 % 0.00 in
17:15 38.0 °F 28.7 °F 30.10 in NW 5.0 mph 13.0 mph 69 % 0.00 in
17:20 38.0 °F 28.7 °F 30.10 in NW 5.0 mph 13.0 mph 69 % 0.00 in
17:24 37.6 °F 29.0 °F 30.14 in West 8.0 mph 21.0 mph 72 % 0.00 in
17:25 37.8 °F 29.2 °F 30.11 in NW 5.0 mph 14.0 mph 71 % 0.00 in
17:30 37.8 °F 29.2 °F 30.11 in NW 5.0 mph 14.0 mph 71 % 0.00 in
17:35 37.8 °F 29.2 °F 30.11 in NW 5.0 mph 14.0 mph 71 % 0.00 in
17:40 37.3 °F 29.0 °F 30.15 in NNW 3.0 mph 14.0 mph 72 % 0.00 in
17:45 37.6 °F 29.1 °F 30.12 in WNW 6.0 mph 18.0 mph 71 % 0.00 in
17:50 37.6 °F 29.1 °F 30.12 in WNW 6.0 mph 18.0 mph 71 % 0.00 in
17:55 37.0 °F 29.0 °F 30.16 in NNW 13.0 mph 16.0 mph 72 % 0.00 in
18:00 37.3 °F 28.4 °F 30.13 in WNW 5.0 mph 12.0 mph 70 % 0.00 in
18:05 37.3 °F 28.4 °F 30.13 in WNW 5.0 mph 12.0 mph 70 % 0.00 in
18:10 36.7 °F 29.0 °F 30.17 in NW 4.0 mph 13.0 mph 73 % 0.00 in
18:15 37.0 °F 28.5 °F 30.14 in WNW 5.0 mph 15.0 mph 71 % 0.00 in
18:20 37.0 °F 28.5 °F 30.14 in WNW 5.0 mph 15.0 mph 71 % 0.00 in
18:25 36.3 °F 29.0 °F 30.17 in NW 5.0 mph 16.0 mph 74 % 0.00 in
18:30 36.7 °F 28.9 °F 30.14 in WNW 4.0 mph 11.0 mph 73 % 0.00 in
18:35 36.7 °F 28.9 °F 30.14 in WNW 4.0 mph 11.0 mph 73 % 0.00 in
18:40 35.9 °F 29.0 °F 30.18 in NW 4.0 mph 15.0 mph 76 % 0.00 in
18:45 36.4 °F 28.6 °F 30.15 in NW 5.0 mph 11.0 mph 73 % 0.00 in
18:50 36.4 °F 28.6 °F 30.15 in NW 5.0 mph 11.0 mph 73 % 0.00 in
18:55 35.5 °F 29.0 °F 30.18 in NNW 6.0 mph 14.0 mph 76 % 0.00 in
19:00 36.0 °F 28.9 °F 30.15 in NW 5.0 mph 15.0 mph 75 % 0.00 in
19:05 36.0 °F 28.9 °F 30.15 in NW 5.0 mph 15.0 mph 75 % 0.00 in
19:10 35.2 °F 29.0 °F 30.19 in NNW 6.0 mph 13.0 mph 77 % 0.00 in
19:15 35.6 °F 28.8 °F 30.16 in WNW 5.0 mph 13.0 mph 76 % 0.00 in
19:20 35.6 °F 28.8 °F 30.16 in WNW 5.0 mph 13.0 mph 76 % 0.00 in
19:25 35.1 °F 29.0 °F 30.19 in WNW 4.0 mph 11.0 mph 78 % 0.00 in
19:30 35.3 °F 28.5 °F 30.16 in NW 4.0 mph 12.0 mph 76 % 0.00 in
19:35 35.3 °F 28.5 °F 30.16 in NW 4.0 mph 12.0 mph 76 % 0.00 in
19:40 35.0 °F 29.0 °F 30.20 in West 8.0 mph 14.0 mph 79 % 0.00 in
19:45 35.1 °F 28.6 °F 30.17 in WNW 3.0 mph 11.0 mph 77 % 0.00 in
19:50 35.1 °F 28.6 °F 30.17 in WNW 3.0 mph 11.0 mph 77 % 0.00 in
19:55 34.6 °F 28.0 °F 30.21 in NW 3.0 mph 18.0 mph 77 % 0.00 in
20:00 35.0 °F 28.9 °F 30.17 in WNW 4.0 mph 12.0 mph 78 % 0.00 in
20:05 35.0 °F 28.9 °F 30.17 in WNW 4.0 mph 12.0 mph 78 % 0.00 in
20:10 34.1 °F 27.0 °F 30.21 in Calm   13.0 mph 76 % 0.00 in
20:15 34.7 °F 27.9 °F 30.18 in NW 5.0 mph 14.0 mph 76 % 0.00 in
20:20 34.7 °F 27.9 °F 30.18 in NW 5.0 mph 14.0 mph 76 % 0.00 in
20:25 33.4 °F 26.0 °F 30.21 in WNW 3.0 mph 13.0 mph 75 % 0.00 in
20:30 34.3 °F 27.2 °F 30.18 in WNW 4.0 mph 11.0 mph 75 % 0.00 in
20:35 34.3 °F 27.2 °F 30.18 in WNW 4.0 mph 11.0 mph 75 % 0.00 in
20:40 32.8 °F 25.0 °F 30.21 in NW 2.0 mph 13.0 mph 74 % 0.00 in
20:45 33.5 °F 26.1 °F 30.18 in WNW 4.0 mph 13.0 mph 74 % 0.00 in
20:50 33.5 °F 26.1 °F 30.18 in WNW 4.0 mph 13.0 mph 74 % 0.00 in
20:55 32.3 °F 25.0 °F 30.22 in NW 2.0 mph 12.0 mph 74 % 0.00 in
21:00 32.9 °F 25.2 °F 30.18 in WNW 4.0 mph 12.0 mph 73 % 0.00 in
21:05 32.9 °F 25.2 °F 30.18 in WNW 4.0 mph 12.0 mph 73 % 0.00 in
21:10 32.4 °F 24.7 °F 30.19 in NW 4.0 mph 13.0 mph 73 % 0.00 in
21:11 32.1 °F 25.0 °F 30.23 in NNW 4.0 mph 14.0 mph 74 % 0.00 in
21:15 32.4 °F 24.7 °F 30.19 in NW 4.0 mph 13.0 mph 73 % 0.00 in
21:20 32.4 °F 24.7 °F 30.19 in NW 4.0 mph 13.0 mph 73 % 0.00 in
21:25 31.8 °F 25.0 °F 30.23 in NNW 8.0 mph 12.0 mph 76 % 0.00 in
21:30 32.1 °F 24.4 °F 30.19 in NW 5.0 mph 14.0 mph 73 % 0.00 in
21:35 32.1 °F 24.4 °F 30.19 in NW 5.0 mph 14.0 mph 73 % 0.00 in
21:40 31.8 °F 25.0 °F 30.24 in NW 3.0 mph 14.0 mph 77 % 0.00 in
21:45 31.9 °F 24.9 °F 30.20 in NW 4.0 mph 10.0 mph 75 % 0.00 in
21:50 31.9 °F 24.9 °F 30.20 in NW 4.0 mph 10.0 mph 75 % 0.00 in
21:55 31.4 °F 24.0 °F 30.25 in NW 9.0 mph 16.0 mph 75 % 0.00 in
22:00 31.8 °F 25.1 °F 30.21 in NW 5.0 mph 16.0 mph 76 % 0.00 in
22:05 31.8 °F 25.1 °F 30.21 in NW 5.0 mph 16.0 mph 76 % 0.00 in
22:10 30.9 °F 24.0 °F 30.25 in NNW 5.0 mph 13.0 mph 75 % 0.00 in
22:15 31.5 °F 24.2 °F 30.21 in NW 6.0 mph 15.0 mph 74 % 0.00 in
22:20 31.5 °F 24.2 °F 30.21 in NW 6.0 mph 15.0 mph 74 % 0.00 in
22:25 30.5 °F 23.0 °F 30.25 in NNW 3.0 mph 14.0 mph 75 % 0.00 in
22:30 31.0 °F 24.0 °F 30.21 in NW 4.0 mph 12.0 mph 75 % 0.00 in
22:35 31.0 °F 24.0 °F 30.21 in NW 4.0 mph 12.0 mph 75 % 0.00 in
22:40 30.2 °F 23.0 °F 30.25 in WNW 8.0 mph 13.0 mph 75 % 0.00 in
22:45 30.6 °F 23.3 °F 30.21 in NW 3.0 mph 12.0 mph 74 % 0.00 in
22:50 30.6 °F 23.3 °F 30.21 in NW 3.0 mph 12.0 mph 74 % 0.00 in
22:55 30.3 °F 23.0 °F 30.22 in NW 3.0 mph 9.0 mph 74 % 0.00 in
22:56 30.1 °F 23.0 °F 30.26 in NW 3.0 mph 12.0 mph 75 % 0.00 in
23:00 30.3 °F 23.0 °F 30.22 in NW 3.0 mph 9.0 mph 74 % 0.00 in
23:05 30.3 °F 23.0 °F 30.22 in NW 3.0 mph 9.0 mph 74 % 0.00 in
23:10 30.1 °F 22.5 °F 30.22 in NW 4.0 mph 10.0 mph 73 % 0.00 in
23:11 29.9 °F 23.0 °F 30.26 in Calm   9.0 mph 75 % 0.00 in
23:15 30.1 °F 22.5 °F 30.22 in NW 4.0 mph 10.0 mph 73 % 0.00 in
23:20 30.1 °F 22.5 °F 30.22 in NW 4.0 mph 10.0 mph 73 % 0.00 in
23:25 30.0 °F 22.7 °F 30.22 in NW 3.0 mph 10.0 mph 74 % 0.00 in
23:26 29.6 °F 23.0 °F 30.26 in NNW 8.0 mph 8.0 mph 76 % 0.00 in
23:30 30.0 °F 22.7 °F 30.22 in NW 3.0 mph 10.0 mph 74 % 0.00 in
23:35 30.0 °F 22.7 °F 30.22 in NW 3.0 mph 10.0 mph 74 % 0.00 in
23:40 29.7 °F 22.8 °F 30.23 in NW 2.0 mph 8.0 mph 75 % 0.00 in
23:41 29.3 °F 23.0 °F 30.27 in NNW 3.0 mph 8.0 mph 77 % 0.00 in
23:45 29.7 °F 22.8 °F 30.23 in NW 2.0 mph 8.0 mph 75 % 0.00 in
23:50 29.7 °F 22.8 °F 30.23 in NW 2.0 mph 8.0 mph 75 % 0.00 in
23:55 29.3 °F 22.7 °F 30.23 in NW 2.0 mph 5.0 mph 76 % 0.00 in
23:56 28.9 °F 23.0 °F 30.28 in NW 4.0 mph 8.0 mph 78 % 0.00 in
Des Moines Weather and Climate
Compliments of Weather Underground - 4.5 mb

Script developed by  Jim McMurry - jmcmurry@mwt.net Adapted for the template by  Wim van der Kuil - Leuven-Template.eu

You find our weather info also at:

Weather Underground

Equipment we use:

Weather-station
Davis VP2 Plus

Weather-program
Davis Weatherlink.Com

Weather-server
iMac (Retina 4K, 21.5-inch, Late 2015)

Provider
Hostmonster.com

Davis VP2 Plus

Davis Weatherlink.Com

iMac (Retina 4K, 21.5-inch, Late 2015)

Hostmonster.com